Time;durP1;ratioP1;P1;durP2;ratioP2;P2;SDS_P1;SDS_P2;PMS_P1;PMS_P2;Temp;Humidity;BMP_temperature;BMP_pressure;BME280_temperature;BME280_humidity;BME280_pressure;Samples;Min_cycle;Max_cycle;Signal;HPM_P1;HPM_P2
2023/04/17 00:00:49;;;;;;;5.82;3.83;;;;;;;11.40;61.94;93148.91;5002122;28;20025;-76
2023/04/17 00:03:15;;;;;;;5.68;3.63;;;;;;;11.41;62.98;93161.13;5004877;28;20030;-77
2023/04/17 00:05:45;;;;;;;5.07;4.10;;;;;;;11.50;62.61;93143.94;5004323;28;20629;-77
2023/04/17 00:08:11;;;;;;;4.10;3.00;;;;;;;11.73;61.69;93136.28;5005367;28;20259;-76
2023/04/17 00:10:36;;;;;;;5.10;2.88;;;;;;;11.90;61.25;93152.00;5003384;28;20054;-78
2023/04/17 00:13:01;;;;;;;6.80;3.25;;;;;;;12.00;60.71;93140.09;5002592;28;20033;-76
2023/04/17 00:15:27;;;;;;;5.90;3.35;;;;;;;11.92;60.37;93122.38;5005400;28;20076;-78
2023/04/17 00:17:52;;;;;;;5.20;3.33;;;;;;;12.13;60.60;93133.59;5006852;28;20433;-77
2023/04/17 00:20:18;;;;;;;6.07;3.90;;;;;;;12.14;60.93;93139.72;5006176;28;20439;-77
2023/04/17 00:22:43;;;;;;;6.90;3.10;;;;;;;12.24;61.06;93149.91;5003320;28;20067;-77
2023/04/17 00:25:11;;;;;;;7.18;3.60;;;;;;;12.29;60.43;93152.31;5006454;28;20428;-76
2023/04/17 00:27:37;;;;;;;6.03;3.67;;;;;;;12.35;59.94;93150.97;5006135;28;20088;-75
2023/04/17 00:30:06;;;;;;;4.57;2.90;;;;;;;12.37;59.94;93143.44;5004380;28;20536;-76
2023/04/17 00:32:31;;;;;;;4.10;2.70;;;;;;;12.18;59.84;93124.59;5002859;28;20030;-76
2023/04/17 00:34:57;;;;;;;4.63;3.15;;;;;;;12.03;59.66;93121.53;5002704;28;20546;-77
2023/04/17 00:37:22;;;;;;;5.78;3.10;;;;;;;12.15;59.67;93117.28;5005170;28;20518;-76
2023/04/17 00:39:48;;;;;;;3.22;2.63;;;;;;;12.29;59.25;93139.78;5004457;28;20022;-77
2023/04/17 00:42:13;;;;;;;4.22;2.90;;;;;;;12.24;59.64;93134.69;5002214;28;20140;-77
2023/04/17 00:44:38;;;;;;;4.72;2.30;;;;;;;12.13;59.46;93122.16;5003675;28;20046;-76
2023/04/17 00:47:04;;;;;;;3.13;2.60;;;;;;;11.95;60.53;93143.78;5004420;28;21023;-77
2023/04/17 00:49:30;;;;;;;4.00;2.90;;;;;;;11.73;60.66;93108.88;5004395;28;20447;-76
2023/04/17 00:51:56;;;;;;;5.85;3.10;;;;;;;11.51;61.70;93108.22;5005514;28;20491;-77
2023/04/17 00:54:23;;;;;;;2.92;2.72;;;;;;;11.82;61.41;93122.84;5005920;28;20093;-77
2023/04/17 00:56:50;;;;;;;3.45;2.92;;;;;;;11.80;60.96;93128.47;5000055;28;20164;-77
2023/04/17 00:59:17;;;;;;;4.63;3.75;;;;;;;11.01;64.29;93127.19;5005886;28;20038;-76
2023/04/17 01:01:43;;;;;;;3.28;2.75;;;;;;;10.78;65.44;93123.38;5004049;28;20040;-76
2023/04/17 01:04:11;;;;;;;6.10;3.25;;;;;;;10.36;66.28;93106.00;5005508;28;20033;-76
2023/04/17 01:06:36;;;;;;;5.13;3.88;;;;;;;10.02;66.53;93099.13;5005970;28;20172;-76
2023/04/17 01:09:03;;;;;;;10.90;4.22;;;;;;;9.52;67.39;93131.06;5003868;28;20484;-77
2023/04/17 01:11:28;;;;;;;10.35;4.93;;;;;;;9.13;66.31;93087.13;5006061;28;20037;-76
2023/04/17 01:13:53;;;;;;;12.18;5.68;;;;;;;8.81;67.93;93091.91;5006646;28;20415;-76
2023/04/17 01:16:19;;;;;;;15.27;5.95;;;;;;;8.79;68.84;93099.41;5006359;28;20506;-75
2023/04/17 01:18:47;;;;;;;12.38;5.65;;;;;;;8.58;68.87;93102.00;5004407;28;20068;-78
2023/04/17 01:21:12;;;;;;;10.25;5.78;;;;;;;8.69;69.08;93107.72;5004940;28;20804;-79
2023/04/17 01:23:45;;;;;;;14.23;6.25;;;;;;;8.47;69.43;93087.50;5008224;28;20378;-78
2023/04/17 01:26:24;;;;;;;10.57;6.05;;;;;;;8.49;69.95;93100.47;5009679;28;20382;-79
2023/04/17 01:28:55;;;;;;;8.27;5.78;;;;;;;8.28;70.54;93094.28;5006579;28;20370;-79
2023/04/17 01:31:21;;;;;;;11.23;6.60;;;;;;;8.32;70.83;93125.13;5007740;28;20034;-79
2023/04/17 01:33:48;;;;;;;9.00;5.70;;;;;;;8.47;70.48;93108.72;5008005;28;20030;-77
2023/04/17 01:36:13;;;;;;;8.05;6.18;;;;;;;8.51;69.35;93104.34;5009838;28;20065;-77
2023/04/17 01:38:39;;;;;;;9.65;5.95;;;;;;;8.36;69.18;93090.84;5007253;28;20161;-78
2023/04/17 01:41:08;;;;;;;11.85;6.22;;;;;;;8.33;69.81;93113.44;5006805;28;20526;-77
2023/04/17 01:43:38;;;;;;;9.15;6.03;;;;;;;8.04;70.37;93071.75;5008569;28;20405;-78
2023/04/17 01:46:04;;;;;;;8.73;6.13;;;;;;;8.59;68.84;93074.41;5006893;28;20033;-77
2023/04/17 01:48:30;;;;;;;19.45;7.65;;;;;;;8.40;69.51;93081.94;5008777;28;20088;-78
2023/04/17 01:50:55;;;;;;;15.10;7.93;;;;;;;8.27;69.68;93077.59;5005303;28;20061;-77
2023/04/17 01:53:21;;;;;;;13.70;6.57;;;;;;;8.15;70.61;93096.81;5008380;28;20120;-77
2023/04/17 01:55:46;;;;;;;15.18;6.97;;;;;;;8.01;70.40;93066.28;5004865;28;20042;-77
2023/04/17 01:58:11;;;;;;;10.90;7.10;;;;;;;7.88;71.66;93080.47;5009485;28;20476;-78
2023/04/17 02:00:37;;;;;;;16.38;8.77;;;;;;;7.86;71.88;93087.97;5008632;28;20014;-77
2023/04/17 02:03:02;;;;;;;12.98;7.97;;;;;;;7.98;71.80;93088.09;5008154;28;20118;-78
2023/04/17 02:05:27;;;;;;;19.15;9.25;;;;;;;7.70;72.16;93059.28;5008072;28;20156;-77
2023/04/17 02:07:53;;;;;;;13.18;7.97;;;;;;;8.03;71.91;93082.63;5007577;28;20587;-78
2023/04/17 02:10:18;;;;;;;14.07;8.45;;;;;;;7.98;72.72;93085.44;5006936;28;20049;-78
2023/04/17 02:12:43;;;;;;;14.20;8.82;;;;;;;7.97;72.42;93078.63;5006802;28;20100;-77
2023/04/17 02:15:09;;;;;;;12.65;7.30;;;;;;;7.93;72.65;93072.38;5006601;28;20436;-77
2023/04/17 02:17:35;;;;;;;16.98;9.57;;;;;;;8.06;72.02;93087.31;5007443;28;20048;-78
2023/04/17 02:20:00;;;;;;;21.75;9.02;;;;;;;7.93;73.17;93080.31;5007355;28;20041;-78
2023/04/17 02:22:25;;;;;;;18.45;8.73;;;;;;;7.75;73.54;93071.63;5007156;28;20120;-78
2023/04/17 02:24:51;;;;;;;19.02;8.75;;;;;;;7.51;74.16;93047.47;5008668;28;20578;-77
2023/04/17 02:27:16;;;;;;;13.57;9.02;;;;;;;7.47;75.30;93059.78;5006022;28;20045;-77
2023/04/17 02:29:41;;;;;;;18.63;8.93;;;;;;;7.70;75.39;93085.75;5009295;28;20500;-77
2023/04/17 02:32:07;;;;;;;13.95;8.48;;;;;;;7.57;76.07;93076.13;5005305;28;20457;-78
2023/04/17 02:34:32;;;;;;;20.70;11.02;;;;;;;7.68;75.77;93072.03;5008300;28;20497;-77
2023/04/17 02:36:57;;;;;;;14.68;9.23;;;;;;;7.57;76.33;93076.13;5007203;28;20037;-78
2023/04/17 02:39:24;;;;;;;19.73;9.38;;;;;;;7.53;76.30;93064.56;5007443;28;20052;-77
2023/04/17 02:41:49;;;;;;;12.07;9.40;;;;;;;7.45;76.81;93080.47;5007337;28;20030;-77
2023/04/17 02:44:15;;;;;;;18.55;8.82;;;;;;;7.47;77.03;93076.44;5006723;28;20127;-77
2023/04/17 02:46:40;;;;;;;14.48;8.88;;;;;;;7.40;77.09;93070.03;5005911;28;20038;-77
2023/04/17 02:49:05;;;;;;;15.40;10.52;;;;;;;7.37;76.89;93046.84;5007944;28;20110;-76
2023/04/17 02:51:31;;;;;;;17.33;8.45;;;;;;;7.58;76.90;93074.25;5007591;28;20093;-77
2023/04/17 02:53:56;;;;;;;15.32;9.90;;;;;;;7.57;76.69;93076.13;5005957;28;20029;-79
2023/04/17 02:56:21;;;;;;;10.63;7.95;;;;;;;7.55;76.64;93073.00;5007236;28;20087;-77
2023/04/17 02:58:47;;;;;;;12.52;8.10;;;;;;;7.60;76.99;93086.06;5005090;28;20034;-78
2023/04/17 03:01:12;;;;;;;15.38;9.23;;;;;;;7.49;77.09;93071.59;5005945;28;20107;-77
2023/04/17 03:03:40;;;;;;;11.27;7.63;;;;;;;7.29;76.96;93038.59;5007004;28;20484;-77
2023/04/17 03:06:07;;;;;;;13.77;8.32;;;;;;;7.62;76.94;93083.13;5006173;28;20034;-78
2023/04/17 03:08:34;;;;;;;13.55;8.80;;;;;;;7.71;76.92;93100.56;5006100;28;20591;-77
2023/04/17 03:11:02;;;;;;;11.32;8.07;;;;;;;7.41;77.00;93061.78;5005586;28;20073;-78
2023/04/17 03:13:27;;;;;;;12.20;8.20;;;;;;;7.75;76.84;93092.78;5007241;28;20108;-78
2023/04/17 03:15:53;;;;;;;14.82;8.70;;;;;;;7.66;76.38;93087.47;5005081;28;20943;-79
2023/04/17 03:18:18;;;;;;;11.93;7.75;;;;;;;7.56;77.01;93085.16;5007167;28;20084;-77
2023/04/17 03:20:43;;;;;;;18.15;8.77;;;;;;;7.60;76.79;93083.44;5004688;28;20550;-77
2023/04/17 03:23:09;;;;;;;16.90;8.13;;;;;;;7.54;77.19;93078.59;5006104;28;20041;-78
2023/04/17 03:25:34;;;;;;;24.50;11.00;;;;;;;7.52;76.98;93084.22;5005759;28;20034;-77
2023/04/17 03:28:00;;;;;;;14.27;8.68;;;;;;;7.63;77.54;93101.31;5005327;28;20071;-78
2023/04/17 03:30:25;;;;;;;15.18;8.80;;;;;;;7.40;78.99;93072.66;5005417;28;20044;-78
2023/04/17 03:32:50;;;;;;;19.25;9.65;;;;;;;7.68;78.58;93092.44;5007965;28;20030;-78
2023/04/17 03:35:16;;;;;;;19.35;9.65;;;;;;;7.52;79.20;93094.00;5005735;28;20555;-77
2023/04/17 03:37:41;;;;;;;13.98;9.68;;;;;;;7.63;78.91;93090.72;5005108;28;20050;-77
2023/04/17 03:40:07;;;;;;;18.30;9.27;;;;;;;7.76;78.72;93110.22;5007716;28;20552;-77
2023/04/17 03:42:32;;;;;;;11.98;9.23;;;;;;;7.65;78.47;93083.28;5005898;28;20040;-76
2023/04/17 03:44:58;;;;;;;16.00;9.95;;;;;;;7.88;77.69;93115.66;5008021;28;20594;-78
2023/04/17 03:47:23;;;;;;;15.63;9.18;;;;;;;7.56;77.97;93077.19;5005753;28;20202;-78
2023/04/17 03:49:49;;;;;;;17.90;9.60;;;;;;;7.45;78.77;93093.69;5005554;28;20037;-77
2023/04/17 03:52:14;;;;;;;17.90;9.10;;;;;;;7.56;78.12;93090.44;5005050;28;21431;-77
2023/04/17 03:54:41;;;;;;;11.70;8.05;;;;;;;8.10;76.91;93114.72;5007496;28;20480;-78
2023/04/17 03:57:06;;;;;;;12.85;9.23;;;;;;;8.10;76.34;93109.44;5005447;28;20061;-77
2023/04/17 03:59:32;;;;;;;15.95;9.05;;;;;;;8.04;75.92;93100.88;5004303;28;20137;-77
2023/04/17 04:01:57;;;;;;;17.00;8.18;;;;;;;7.98;76.09;93099.47;5004833;28;20080;-77
2023/04/17 04:04:23;;;;;;;14.43;9.70;;;;;;;8.31;75.63;93115.63;5007759;28;20041;-77
2023/04/17 04:06:49;;;;;;;18.20;8.45;;;;;;;8.28;74.87;93105.66;5004732;28;20030;-77
2023/04/17 04:09:14;;;;;;;12.60;9.50;;;;;;;8.26;74.74;93099.13;5003726;28;20136;-77
2023/04/17 04:11:39;;;;;;;13.98;9.23;;;;;;;8.58;73.35;93115.25;5005200;28;20497;-78
2023/04/17 04:14:05;;;;;;;14.30;9.00;;;;;;;8.13;73.61;93077.00;5005138;28;20034;-79
2023/04/17 04:16:30;;;;;;;16.20;8.38;;;;;;;8.53;73.20;93101.38;5006224;28;20037;-78
2023/04/17 04:18:56;;;;;;;15.75;9.05;;;;;;;8.61;73.09;93113.06;5006477;28;20030;-77
2023/04/17 04:21:22;;;;;;;16.20;9.50;;;;;;;8.15;73.83;93096.03;5005298;28;20030;-78
2023/04/17 04:23:48;;;;;;;14.30;9.13;;;;;;;8.46;73.03;93085.19;5004298;28;20641;-77
2023/04/17 04:26:15;;;;;;;15.00;10.00;;;;;;;8.76;71.41;93104.56;5012626;28;20592;-78
2023/04/17 04:28:42;;;;;;;16.27;10.20;;;;;;;8.64;70.73;93075.31;5018735;28;20034;-78
2023/04/17 04:31:08;;;;;;;15.68;9.10;;;;;;;8.69;70.88;93080.44;5005209;28;20036;-78
2023/04/17 04:33:34;;;;;;;14.50;9.52;;;;;;;9.18;69.17;93122.19;5004091;28;20564;-77
2023/04/17 04:36:00;;;;;;;15.48;7.75;;;;;;;9.34;68.81;93120.53;5012727;28;20038;-78
2023/04/17 04:38:29;;;;;;;13.15;8.30;;;;;;;9.27;68.40;93114.97;5005109;28;20029;-78
2023/04/17 04:41:00;;;;;;;13.23;7.05;;;;;;;9.51;67.51;93124.19;5001254;28;20048;-78
2023/04/17 04:43:28;;;;;;;12.70;8.25;;;;;;;9.45;67.45;93124.38;5006506;28;20285;-77
2023/04/17 04:45:54;;;;;;;11.30;7.35;;;;;;;9.52;67.75;93131.06;5004494;28;20659;-78
2023/04/17 04:48:20;;;;;;;13.52;7.75;;;;;;;9.53;67.13;93116.69;5006958;28;20038;-78
2023/04/17 04:50:46;;;;;;;17.92;8.35;;;;;;;9.33;67.05;93108.38;5003433;28;20065;-77
2023/04/17 04:53:11;;;;;;;11.15;7.65;;;;;;;9.33;66.99;93063.28;5004070;28;20038;-78
2023/04/17 04:55:36;;;;;;;15.13;8.10;;;;;;;9.81;65.68;93117.72;5003213;28;20042;-78
2023/04/17 04:58:05;;;;;;;10.23;7.65;;;;;;;9.31;66.53;93084.03;5007836;28;20547;-78
2023/04/17 05:00:31;;;;;;;13.95;7.55;;;;;;;9.00;67.92;93115.38;5009680;28;20050;-78
2023/04/17 05:02:56;;;;;;;13.50;8.20;;;;;;;9.27;67.85;93132.75;5007628;28;20132;-78
2023/04/17 05:05:21;;;;;;;14.45;8.27;;;;;;;9.23;67.63;93111.41;5009687;28;20038;-78
2023/04/17 05:07:47;;;;;;;13.32;8.75;;;;;;;9.14;67.48;93096.63;5011076;28;20061;-77
2023/04/17 05:10:12;;;;;;;13.55;9.43;;;;;;;9.09;68.09;93118.00;5008987;28;20137;-77
2023/04/17 05:12:37;;;;;;;15.07;8.50;;;;;;;9.26;68.01;93137.28;5008763;28;20384;-77
2023/04/17 05:15:03;;;;;;;12.30;8.52;;;;;;;8.96;68.61;93114.47;5009696;28;20034;-77
2023/04/17 05:17:29;;;;;;;17.60;8.70;;;;;;;8.65;70.33;93124.59;5007336;28;20037;-77
2023/04/17 05:19:54;;;;;;;11.57;8.57;;;;;;;8.47;71.36;93140.50;5010023;28;20041;-77
2023/04/17 05:22:20;;;;;;;14.50;8.70;;;;;;;8.38;71.77;93121.22;5005677;28;20287;-78
2023/04/17 05:24:45;;;;;;;15.88;8.48;;;;;;;8.55;71.53;93129.13;5009841;28;22081;-77
2023/04/17 05:27:11;;;;;;;14.32;8.55;;;;;;;8.56;70.81;93130.66;5007909;28;20072;-78
2023/04/17 05:29:36;;;;;;;13.63;8.48;;;;;;;8.13;71.13;93127.34;5009006;28;20034;-78
2023/04/17 05:32:02;;;;;;;22.38;10.10;;;;;;;8.47;70.91;93127.25;5012668;28;20099;-77
2023/04/17 05:34:27;;;;;;;11.93;7.75;;;;;;;8.14;71.26;93119.09;5008945;28;20037;-77
2023/04/17 05:36:52;;;;;;;12.68;8.55;;;;;;;8.11;71.03;93132.19;5007003;28;20503;-78
2023/04/17 05:39:18;;;;;;;16.50;8.10;;;;;;;8.25;71.43;93138.06;5015426;28;20069;-78
2023/04/17 05:41:43;;;;;;;10.57;8.07;;;;;;;8.37;70.99;93116.22;5007222;28;20042;-78
2023/04/17 05:44:08;;;;;;;13.00;9.18;;;;;;;8.26;72.79;93123.75;5005789;28;20116;-78
2023/04/17 05:46:34;;;;;;;14.75;9.20;;;;;;;7.99;73.82;93127.50;5007795;28;20038;-77
2023/04/17 05:48:59;;;;;;;14.65;10.82;;;;;;;8.13;73.77;93122.03;5008976;28;20491;-77
2023/04/17 05:51:25;;;;;;;13.55;9.30;;;;;;;7.87;74.36;93111.50;5007232;28;20153;-77
2023/04/17 05:53:50;;;;;;;15.82;9.63;;;;;;;7.98;73.88;93130.47;5008212;28;20041;-77
2023/04/17 05:56:16;;;;;;;11.70;8.85;;;;;;;8.12;74.07;93139.00;5006501;28;20404;-78
2023/04/17 05:58:41;;;;;;;20.17;8.88;;;;;;;8.05;74.33;93126.25;5007266;28;20029;-77
2023/04/17 06:01:07;;;;;;;20.88;9.98;;;;;;;7.95;74.21;93129.22;5006613;28;20030;-76
2023/04/17 06:03:33;;;;;;;12.75;8.98;;;;;;;7.93;75.10;93135.91;5009719;28;20140;-75
2023/04/17 06:05:58;;;;;;;17.25;10.65;;;;;;;7.80;75.81;93150.09;5007772;28;20103;-78
2023/04/17 06:08:25;;;;;;;13.18;9.75;;;;;;;7.70;75.98;93133.41;5009749;28;20523;-76
2023/04/17 06:10:51;;;;;;;13.65;9.93;;;;;;;7.79;76.18;93146.66;5001700;28;20531;-78
2023/04/17 06:13:17;;;;;;;17.50;9.38;;;;;;;7.89;75.75;93134.97;4988403;28;20076;-76
2023/04/17 06:15:42;;;;;;;19.17;9.98;;;;;;;7.82;75.91;93146.06;4987726;28;20412;-76
2023/04/17 06:18:08;;;;;;;12.95;8.95;;;;;;;7.63;76.43;93138.38;4988455;28;21024;-76
2023/04/17 06:20:34;;;;;;;17.77;10.68;;;;;;;7.45;76.37;93125.44;4985795;28;20081;-76
2023/04/17 06:23:00;;;;;;;14.82;9.75;;;;;;;7.59;77.21;93169.19;4987838;28;20022;-80
2023/04/17 06:25:26;;;;;;;17.08;9.40;;;;;;;7.64;77.17;93171.69;4986141;28;20441;-76
2023/04/17 06:27:51;;;;;;;15.95;10.55;;;;;;;7.83;77.23;93170.63;4989744;28;20052;-77
2023/04/17 06:30:19;;;;;;;16.48;10.95;;;;;;;7.62;77.37;93152.72;4992643;28;20042;-78
2023/04/17 06:32:44;;;;;;;19.70;10.10;;;;;;;7.76;76.86;93151.81;4988356;28;20045;-78
2023/04/17 06:35:10;;;;;;;16.17;11.93;;;;;;;7.94;77.00;93174.53;4986622;28;20470;-78
2023/04/17 06:37:35;;;;;;;17.35;10.18;;;;;;;7.70;75.95;93143.22;4986836;28;20046;-78
2023/04/17 06:40:01;;;;;;;16.33;10.63;;;;;;;7.86;76.39;93167.38;4990824;28;20119;-78
2023/04/17 06:42:27;;;;;;;14.30;9.57;;;;;;;7.83;76.30;93183.88;4985213;28;20076;-77
2023/04/17 06:44:53;;;;;;;14.93;9.73;;;;;;;7.86;76.28;93177.97;4988876;28;20034;-77
2023/04/17 06:47:18;;;;;;;15.73;10.20;;;;;;;7.81;75.82;93170.97;4987150;28;20122;-78
2023/04/17 06:49:44;;;;;;;13.43;9.50;;;;;;;7.71;76.68;93166.72;4987982;28;20042;-78
2023/04/17 06:52:09;;;;;;;24.42;11.15;;;;;;;8.00;75.97;93173.31;4987335;28;20477;-77
2023/04/17 06:54:35;;;;;;;17.10;10.13;;;;;;;8.09;76.04;93179.38;4988437;28;20053;-78
2023/04/17 06:57:02;;;;;;;17.33;9.98;;;;;;;7.91;75.58;93159.28;4986288;28;20034;-79
2023/04/17 06:59:27;;;;;;;23.40;10.68;;;;;;;8.19;75.22;93181.72;4988965;28;20029;-78
2023/04/17 07:01:52;;;;;;;19.45;9.55;;;;;;;8.22;75.30;93181.06;4985949;28;20823;-79
2023/04/17 07:04:19;;;;;;;18.38;10.07;;;;;;;8.35;74.89;93172.19;4987326;28;20656;-77
2023/04/17 07:06:45;;;;;;;22.75;12.57;;;;;;;8.48;74.05;93179.19;4989387;28;20197;-76
2023/04/17 07:09:10;;;;;;;15.23;10.18;;;;;;;8.27;74.30;93164.22;4985500;28;20113;-79
2023/04/17 07:11:36;;;;;;;31.10;11.85;;;;;;;8.32;74.55;93172.81;4986792;28;20040;-78
2023/04/17 07:14:01;;;;;;;14.55;10.32;;;;;;;8.57;73.24;93171.97;4987157;28;20100;-78
2023/04/17 07:16:26;;;;;;;16.50;11.18;;;;;;;8.20;73.84;93156.78;4987669;28;20044;-77
2023/04/17 07:18:52;;;;;;;22.85;11.25;;;;;;;8.28;74.04;93171.09;4987516;28;20018;-77
2023/04/17 07:21:17;;;;;;;17.20;10.63;;;;;;;8.19;74.51;93165.81;4985242;28;20116;-77
2023/04/17 07:23:43;;;;;;;22.00;12.35;;;;;;;8.53;74.40;93186.97;4984438;28;20081;-77
2023/04/17 07:26:10;;;;;;;24.20;15.20;;;;;;;8.53;74.11;93184.31;4985890;28;20525;-77
2023/04/17 07:28:37;;;;;;;23.98;14.45;;;;;;;8.57;73.78;93182.59;4994335;28;20035;-77
2023/04/17 07:31:06;;;;;;;24.73;14.07;;;;;;;8.53;72.93;93194.91;4988248;28;20091;-79
2023/04/17 07:33:32;;;;;;;15.32;10.40;;;;;;;8.49;72.06;93153.47;4985833;28;20483;-78
2023/04/17 07:35:57;;;;;;;18.27;10.18;;;;;;;8.62;71.08;93163.09;4986156;28;20038;-78
2023/04/17 07:38:23;;;;;;;19.52;13.48;;;;;;;8.57;71.01;93171.19;4984670;28;20037;-77
2023/04/17 07:40:48;;;;;;;17.58;10.65;;;;;;;8.63;71.41;93169.94;4987808;28;20572;-75
2023/04/17 07:43:15;;;;;;;16.65;12.05;;;;;;;8.79;71.75;93184.25;4986845;28;20173;-77
2023/04/17 07:45:40;;;;;;;21.50;12.98;;;;;;;8.87;71.78;93150.84;4987014;28;20032;-77
2023/04/17 07:48:06;;;;;;;15.98;11.93;;;;;;;8.83;71.27;93131.38;4984279;28;20042;-77
2023/04/17 07:50:31;;;;;;;19.90;11.15;;;;;;;9.03;70.56;93168.56;4987071;28;20034;-77
2023/04/17 07:52:57;;;;;;;16.48;10.18;;;;;;;8.86;70.35;93189.06;4983091;28;20045;-77
2023/04/17 07:55:22;;;;;;;16.63;11.52;;;;;;;8.90;71.35;93163.50;4986728;28;20475;-77
2023/04/17 07:57:48;;;;;;;18.15;11.23;;;;;;;9.08;70.93;93185.41;4984336;28;20037;-77
2023/04/17 08:00:15;;;;;;;25.92;15.00;;;;;;;9.29;70.79;93181.00;4986582;28;20038;-78
2023/04/17 08:02:41;;;;;;;23.23;17.40;;;;;;;9.24;70.95;93181.91;4983132;28;20035;-77
2023/04/17 08:05:07;;;;;;;21.98;16.70;;;;;;;9.35;70.58;93195.59;4994073;28;20504;-77
2023/04/17 08:07:32;;;;;;;20.98;14.27;;;;;;;9.34;70.24;93184.22;4985213;28;20580;-77
2023/04/17 08:09:57;;;;;;;15.05;10.13;;;;;;;9.48;68.97;93188.53;4984576;28;20124;-77
2023/04/17 08:12:23;;;;;;;14.20;9.52;;;;;;;9.57;69.45;93191.91;4984939;28;20509;-78
2023/04/17 08:14:48;;;;;;;16.10;10.82;;;;;;;9.55;69.37;93194.09;4987419;28;20041;-77
2023/04/17 08:17:16;;;;;;;17.95;10.18;;;;;;;9.34;69.68;93170.94;4985422;28;20085;-78
2023/04/17 08:19:42;;;;;;;16.70;9.70;;;;;;;9.56;69.92;93187.69;4986025;28;20040;-78
2023/04/17 08:22:07;;;;;;;17.25;9.77;;;;;;;9.52;71.00;93184.91;4985580;28;20026;-78
2023/04/17 08:24:32;;;;;;;16.88;11.13;;;;;;;9.53;71.64;93186.47;5005924;28;20483;-77
2023/04/17 08:26:58;;;;;;;16.30;11.13;;;;;;;9.60;72.48;93202.66;5004981;28;20033;-78
2023/04/17 08:29:23;;;;;;;19.38;11.15;;;;;;;9.30;71.88;93182.53;5007782;28;20083;-77
2023/04/17 08:31:49;;;;;;;19.13;10.85;;;;;;;9.45;72.52;93179.31;5002985;28;20628;-78
2023/04/17 08:34:14;;;;;;;17.70;12.27;;;;;;;9.58;72.59;93204.09;5005638;28;20033;-78
2023/04/17 08:36:40;;;;;;;19.33;11.30;;;;;;;9.65;73.11;93193.72;5006125;28;20493;-76
2023/04/17 08:39:05;;;;;;;18.10;10.75;;;;;;;9.72;71.44;93200.09;5005284;28;20041;-77
2023/04/17 08:41:38;;;;;;;14.93;10.57;;;;;;;9.72;72.83;93209.94;5004133;28;20400;-78
2023/04/17 08:44:04;;;;;;;20.42;13.88;;;;;;;9.35;74.42;93190.31;5005198;28;20204;-77
2023/04/17 08:46:30;;;;;;;23.90;11.32;;;;;;;9.09;76.60;93193.06;5002599;28;20038;-77
2023/04/17 08:48:56;;;;;;;18.80;12.35;;;;;;;9.07;77.53;93189.16;5012868;28;20231;-77
2023/04/17 08:51:26;;;;;;;17.30;12.65;;;;;;;9.24;78.24;93165.25;5005659;28;20591;-78
2023/04/17 08:53:52;;;;;;;19.95;11.90;;;;;;;9.41;78.25;93200.44;5007383;28;20136;-77
2023/04/17 08:56:18;;;;;;;18.30;13.00;;;;;;;9.26;78.47;93203.63;5002631;28;20565;-77
2023/04/17 08:58:44;;;;;;;21.17;13.70;;;;;;;9.51;79.60;93209.91;5004359;28;20384;-78
2023/04/17 09:01:19;;;;;;;20.20;12.73;;;;;;;9.89;79.34;93183.25;5003690;28;20064;-77
2023/04/17 09:03:47;;;;;;;19.58;10.65;;;;;;;10.36;76.96;93201.69;5001735;28;20025;-77
2023/04/17 09:06:14;;;;;;;20.98;12.80;;;;;;;10.32;75.76;93190.91;5005042;28;20112;-77
2023/04/17 09:08:55;;;;;;;23.08;12.75;;;;;;;10.12;75.59;93203.09;5004205;28;20547;-77
2023/04/17 09:11:21;;;;;;;15.68;11.43;;;;;;;10.08;74.98;93212.81;5015094;28;20645;-77
2023/04/17 09:13:46;;;;;;;29.30;15.05;;;;;;;9.89;75.01;93210.59;5004328;28;20065;-76
2023/04/17 09:16:14;;;;;;;15.85;9.48;;;;;;;10.22;73.27;93197.38;5005591;28;20025;-76
2023/04/17 09:18:45;;;;;;;14.68;10.23;;;;;;;10.43;71.37;93213.34;5002422;28;20531;-78
2023/04/17 09:21:13;;;;;;;10.63;8.57;;;;;;;10.35;68.98;93210.75;5007823;28;20037;-76
2023/04/17 09:23:54;;;;;;;20.42;9.00;;;;;;;10.16;69.57;93206.69;5003826;28;20511;-75
2023/04/17 09:26:26;;;;;;;11.13;8.43;;;;;;;10.24;69.21;93178.47;5003853;28;20821;-76
2023/04/17 09:29:09;;;;;;;13.50;7.32;;;;;;;10.31;67.86;93150.28;5004966;28;20753;-76
2023/04/17 09:31:45;;;;;;;14.27;8.80;;;;;;;10.52;68.15;93186.69;5002271;28;20057;-76
2023/04/17 09:34:11;;;;;;;;;;;;;;;10.60;66.94;93191.16;5005714;28;20487;-76
2023/04/17 09:36:38;;;;;;;10.75;7.18;;;;;;;10.35;64.89;93195.56;5005603;28;19917;-76
2023/04/17 09:39:19;;;;;;;10.30;6.95;;;;;;;10.68;66.04;93199.06;5004733;28;20384;-75
2023/04/17 09:41:45;;;;;;;216.00;18.83;;;;;;;10.62;64.09;93197.69;5004248;28;20046;-76
2023/04/17 09:44:22;;;;;;;13.98;7.35;;;;;;;10.55;64.86;93199.34;5004951;28;20115;-77
2023/04/17 09:46:48;;;;;;;11.73;7.22;;;;;;;10.38;66.07;93200.25;5008408;28;20052;-76
2023/04/17 09:49:24;;;;;;;14.48;7.68;;;;;;;9.76;70.04;93221.47;5005725;28;20405;-75
2023/04/17 09:51:51;;;;;;;13.68;8.68;;;;;;;9.83;72.82;93205.78;5008309;28;20098;-76
2023/04/17 09:54:19;;;;;;;13.43;8.93;;;;;;;9.71;74.94;93187.16;5007636;28;20048;-76
2023/04/17 09:56:46;;;;;;;11.40;8.55;;;;;;;9.79;75.59;93210.97;5003866;28;20372;-76
2023/04/17 09:59:12;;;;;;;17.05;9.73;;;;;;;9.79;75.35;93179.13;4987980;28;20070;-76
2023/04/17 10:01:38;;;;;;;13.93;9.10;;;;;;;10.04;76.31;93184.56;4995589;28;20034;-76
2023/04/17 10:04:04;;;;;;;14.13;10.50;;;;;;;10.16;75.73;93197.94;4987400;28;20030;-76
2023/04/17 10:06:31;;;;;;;13.60;10.18;;;;;;;9.92;76.82;93192.47;4989525;28;20564;-76
2023/04/17 10:08:57;;;;;;;12.57;11.00;;;;;;;10.10;77.42;93194.69;4985836;28;20038;-76
2023/04/17 10:11:24;;;;;;;14.07;9.20;;;;;;;10.52;74.79;93190.13;4987556;28;20038;-76
2023/04/17 10:14:12;;;;;;;15.27;7.75;;;;;;;10.71;70.69;93168.34;4986074;28;20606;-76
2023/04/17 10:16:39;;;;;;;9.98;8.18;;;;;;;10.98;69.47;93181.06;5002564;28;20042;-77
2023/04/17 10:19:26;;;;;;;13.63;8.05;;;;;;;11.17;67.64;93177.88;4988177;28;20121;-76
2023/04/17 10:22:19;;;;;;;10.20;8.48;;;;;;;11.53;67.15;93175.25;4993817;28;20036;-76
2023/04/17 10:24:53;;;;;;;12.30;8.00;;;;;;;11.40;64.06;93176.31;5005395;28;20554;-76
2023/04/17 10:27:27;;;;;;;10.20;8.48;;;;;;;10.99;62.38;93182.63;5004983;28;20681;-78
2023/04/17 10:30:00;;;;;;;10.93;8.85;;;;;;;11.08;60.34;93170.00;5005861;28;20034;-75
2023/04/17 10:32:27;;;;;;;11.10;8.45;;;;;;;11.38;60.30;93173.22;5011785;28;20038;-77
2023/04/17 10:34:58;;;;;;;11.65;8.77;;;;;;;11.20;58.99;93171.13;5005880;28;20906;-77
2023/04/17 10:37:50;;;;;;;10.77;9.25;;;;;;;10.93;60.70;93170.63;5006490;28;20057;-78
2023/04/17 10:40:23;;;;;;;11.00;9.05;;;;;;;11.37;63.07;93166.34;5006654;28;20018;-78
2023/04/17 10:43:03;;;;;;;11.90;9.18;;;;;;;11.30;60.02;93168.00;5006695;28;20051;-77
2023/04/17 10:46:04;;;;;;;12.82;8.52;;;;;;;11.27;60.03;93166.00;5009471;28;20387;-78
2023/04/17 10:48:45;;;;;;;17.02;9.50;;;;;;;11.09;58.50;93174.22;4987913;28;20121;-77
2023/04/17 10:51:23;;;;;;;11.13;7.82;;;;;;;11.21;59.26;93167.31;4986955;28;20034;-78
2023/04/17 10:53:59;;;;;;;10.52;8.52;;;;;;;11.48;58.72;93166.69;4987425;28;20047;-78
2023/04/17 10:56:34;;;;;;;13.43;8.45;;;;;;;11.54;57.43;93168.06;4984771;28;20707;-78
2023/04/17 10:59:00;;;;;;;11.45;7.75;;;;;;;11.41;57.20;93167.22;4985744;28;20038;-77
2023/04/17 11:01:35;;;;;;;12.35;8.13;;;;;;;11.69;56.68;93153.25;4987301;28;20034;-78
2023/04/17 11:04:01;;;;;;;12.32;8.10;;;;;;;11.62;55.26;93161.81;4987214;28;20065;-77
2023/04/17 11:06:28;;;;;;;10.60;7.85;;;;;;;11.30;55.62;93155.47;4987948;28;20548;-78
2023/04/17 11:08:58;;;;;;;12.43;7.43;;;;;;;11.39;56.24;93158.03;4985362;28;21429;-79
2023/04/17 11:11:24;;;;;;;14.30;8.55;;;;;;;11.21;56.48;93146.81;4985234;28;20034;-77
2023/04/17 11:13:50;;;;;;;12.45;9.07;;;;;;;11.33;56.08;93133.53;4987797;28;20548;-78
2023/04/17 11:16:16;;;;;;;12.13;8.88;;;;;;;11.99;60.50;93141.19;4987150;28;20132;-77
2023/04/17 11:18:44;;;;;;;13.40;9.73;;;;;;;11.85;54.80;93152.22;4986699;28;20026;-77
2023/04/17 11:21:13;;;;;;;14.27;8.55;;;;;;;12.02;54.67;93138.66;5003171;28;20048;-76
2023/04/17 11:23:39;;;;;;;12.63;9.02;;;;;;;12.39;54.44;93136.63;5003521;28;20140;-79
2023/04/17 11:26:08;;;;;;;11.05;7.97;;;;;;;12.51;53.27;93154.47;5008181;28;20034;-78
2023/04/17 11:28:38;;;;;;;10.18;8.10;;;;;;;12.27;52.90;93159.91;5010930;28;20042;-75